createdAt,value
2023-05-07T00:01:29.656Z,7.83
2023-05-07T00:03:56.448Z,7.03
2023-05-07T00:06:23.948Z,7.30
2023-05-07T00:08:50.829Z,7.23
2023-05-07T00:11:17.442Z,7.73
2023-05-07T00:13:44.009Z,7.17
2023-05-07T00:16:10.837Z,6.53
2023-05-07T00:18:37.462Z,6.83
2023-05-07T00:21:04.329Z,7.20
2023-05-07T00:23:30.869Z,7.53
2023-05-07T00:25:57.678Z,7.23
2023-05-07T00:28:24.276Z,6.97
2023-05-07T00:30:50.952Z,7.20
2023-05-07T00:33:17.569Z,7.40
2023-05-07T00:35:44.289Z,6.70
2023-05-07T00:38:10.826Z,7.87
2023-05-07T00:40:37.452Z,6.70
2023-05-07T00:43:04.115Z,7.20
2023-05-07T00:45:31.072Z,6.87
2023-05-07T00:48:01.716Z,6.70
2023-05-07T00:53:09.705Z,7.60
2023-05-07T00:55:37.488Z,6.77
2023-05-07T00:58:04.222Z,7.20
2023-05-07T01:00:30.942Z,8.37
2023-05-07T01:02:57.666Z,6.93
2023-05-07T01:05:26.680Z,7.53
2023-05-07T01:07:56.094Z,7.93
2023-05-07T01:10:23.793Z,6.87
2023-05-07T01:12:51.453Z,7.17
2023-05-07T01:15:19.193Z,5.43
2023-05-07T01:17:46.101Z,6.73
2023-05-07T01:20:13.901Z,6.40
2023-05-07T01:22:41.571Z,6.60
2023-05-07T01:25:09.332Z,6.40
2023-05-07T01:27:40.501Z,7.07
2023-05-07T01:30:08.161Z,6.63
2023-05-07T01:32:47.750Z,6.60
2023-05-07T01:35:19.706Z,6.77
2023-05-07T01:37:48.128Z,7.10
2023-05-07T01:40:15.411Z,6.87
2023-05-07T01:42:44.488Z,6.13
2023-05-07T01:45:11.564Z,6.37
2023-05-07T01:47:38.930Z,6.33
2023-05-07T01:50:07.311Z,6.17
2023-05-07T01:52:34.137Z,6.00
2023-05-07T01:55:00.790Z,6.43
2023-05-07T01:57:27.549Z,7.13
2023-05-07T01:59:54.140Z,7.13
2023-05-07T02:02:20.849Z,6.20
2023-05-07T02:04:47.565Z,7.27
2023-05-07T02:07:14.159Z,7.20
2023-05-07T02:09:40.817Z,6.53
2023-05-07T02:12:07.499Z,5.37
2023-05-07T02:14:34.059Z,6.10
2023-05-07T02:17:00.656Z,6.23
2023-05-07T02:19:27.521Z,6.00
2023-05-07T02:21:54.201Z,5.77
2023-05-07T02:24:20.886Z,5.60
2023-05-07T02:26:47.426Z,5.30
2023-05-07T02:29:14.073Z,5.90
2023-05-07T02:31:40.678Z,6.23
2023-05-07T02:34:07.324Z,6.33
2023-05-07T02:36:33.912Z,5.60
2023-05-07T02:39:00.466Z,5.57
2023-05-07T02:41:27.112Z,5.50
2023-05-07T02:43:53.718Z,5.80
2023-05-07T02:46:20.421Z,5.97
2023-05-07T02:48:47.063Z,5.20
2023-05-07T02:51:13.651Z,6.20
2023-05-07T02:53:40.189Z,6.27
2023-05-07T02:56:07.549Z,7.53
2023-05-07T02:58:34.199Z,6.10
2023-05-07T03:01:00.940Z,6.03
2023-05-07T03:03:27.564Z,6.13
2023-05-07T03:05:54.131Z,6.50
2023-05-07T03:08:20.796Z,6.17
2023-05-07T03:10:47.732Z,6.87
2023-05-07T03:13:14.337Z,6.70
2023-05-07T03:15:41.172Z,6.60
2023-05-07T03:18:08.030Z,6.70
2023-05-07T03:20:34.867Z,6.73
2023-05-07T03:23:01.491Z,6.43
2023-05-07T03:25:28.634Z,6.23
2023-05-07T03:27:55.243Z,6.13
2023-05-07T03:30:21.955Z,6.50
2023-05-07T03:32:48.840Z,6.43
2023-05-07T03:35:15.560Z,7.13
2023-05-07T03:37:42.161Z,6.43
2023-05-07T03:40:11.758Z,6.50
2023-05-07T03:42:38.860Z,7.20
2023-05-07T03:45:06.371Z,6.27
2023-05-07T03:47:33.064Z,6.50
2023-05-07T03:50:00.665Z,6.60
2023-05-07T03:52:27.327Z,6.13
2023-05-07T03:54:54.905Z,6.63
2023-05-07T03:57:21.958Z,6.57
2023-05-07T03:59:48.669Z,6.60
2023-05-07T04:02:15.300Z,6.67
2023-05-07T04:04:41.998Z,6.70
2023-05-07T04:07:08.660Z,7.13
2023-05-07T04:09:35.320Z,6.30
2023-05-07T04:12:02.505Z,6.83
2023-05-07T04:14:29.087Z,6.13
2023-05-07T04:16:55.816Z,6.13
2023-05-07T04:19:24.742Z,6.57
2023-05-07T04:21:51.547Z,6.17
2023-05-07T04:24:18.129Z,6.00
2023-05-07T04:26:44.847Z,5.83
2023-05-07T04:29:11.393Z,6.33
2023-05-07T04:31:38.111Z,5.70
2023-05-07T04:34:04.660Z,5.17
2023-05-07T04:36:31.769Z,5.73
2023-05-07T04:38:58.309Z,5.90
2023-05-07T04:41:24.866Z,5.33
2023-05-07T04:43:52.704Z,4.97
2023-05-07T04:46:19.325Z,5.67
2023-05-07T04:48:45.937Z,5.73
2023-05-07T04:51:12.530Z,5.70
2023-05-07T04:53:39.084Z,5.60
2023-05-07T04:56:05.793Z,5.07
2023-05-07T04:58:33.149Z,6.17
2023-05-07T05:01:00.418Z,6.27
2023-05-07T05:03:27.270Z,6.27
2023-05-07T05:05:54.182Z,6.50
2023-05-07T05:08:20.818Z,5.73
2023-05-07T05:10:49.748Z,5.80
2023-05-07T05:13:16.729Z,5.73
2023-05-07T05:15:43.615Z,6.30
2023-05-07T05:18:10.271Z,6.53
2023-05-07T05:20:37.158Z,6.30
2023-05-07T05:23:03.903Z,6.03
2023-05-07T05:25:30.650Z,5.83
2023-05-07T05:27:57.708Z,6.40
2023-05-07T05:30:24.496Z,6.00
2023-05-07T05:32:51.254Z,6.07
2023-05-07T05:35:18.050Z,5.50
2023-05-07T05:37:44.656Z,5.63
2023-05-07T05:40:12.078Z,6.63
2023-05-07T05:42:38.745Z,6.00
2023-05-07T05:45:05.960Z,6.20
2023-05-07T05:47:32.670Z,7.33
2023-05-07T05:49:59.552Z,5.70
2023-05-07T05:52:26.151Z,5.97
2023-05-07T05:54:52.739Z,6.27
2023-05-07T05:57:19.781Z,5.77
2023-05-07T05:59:47.707Z,6.23
2023-05-07T06:02:14.537Z,5.70
2023-05-07T06:04:41.350Z,5.37
2023-05-07T06:07:07.947Z,6.30
2023-05-07T06:09:34.604Z,5.50
2023-05-07T06:12:01.197Z,6.13
2023-05-07T06:14:27.729Z,4.97
2023-05-07T06:16:54.360Z,6.03
2023-05-07T06:19:24.290Z,5.77
2023-05-07T06:21:51.594Z,5.67
2023-05-07T06:24:18.351Z,5.93
2023-05-07T06:26:44.949Z,5.53
2023-05-07T06:29:11.583Z,5.47
2023-05-07T06:31:38.229Z,5.57
2023-05-07T06:34:05.124Z,5.50
2023-05-07T06:36:31.837Z,5.63
2023-05-07T06:38:58.417Z,6.30
2023-05-07T06:41:25.030Z,5.47
2023-05-07T06:43:51.654Z,5.33
2023-05-07T06:46:18.391Z,5.07
2023-05-07T06:48:44.991Z,5.27
2023-05-07T06:51:11.601Z,5.23
2023-05-07T06:53:38.138Z,5.27
2023-05-07T06:56:04.866Z,5.17
2023-05-07T06:58:31.423Z,5.27
2023-05-07T07:00:57.999Z,4.80
2023-05-07T07:03:24.659Z,4.83
2023-05-07T07:05:55.028Z,5.80
2023-05-07T07:08:22.607Z,4.93
2023-05-07T07:10:49.435Z,4.43
2023-05-07T07:13:16.149Z,5.23
2023-05-07T07:15:42.924Z,4.47
2023-05-07T07:18:09.862Z,4.57
2023-05-07T07:20:36.516Z,5.30
2023-05-07T07:23:03.169Z,4.60
2023-05-07T07:25:29.933Z,4.80
2023-05-07T07:27:56.553Z,4.77
2023-05-07T07:30:23.272Z,4.10
2023-05-07T07:32:49.866Z,4.03
2023-05-07T07:35:17.350Z,4.30
2023-05-07T07:37:43.933Z,4.13
2023-05-07T07:40:11.420Z,4.17
2023-05-07T07:42:38.150Z,4.70
2023-05-07T07:45:05.689Z,5.60
2023-05-07T07:47:32.288Z,7.10
2023-05-07T07:49:58.983Z,4.77
2023-05-07T07:52:25.539Z,4.20
2023-05-07T07:54:52.169Z,4.67
2023-05-07T07:57:18.740Z,4.23
2023-05-07T07:59:45.390Z,4.07
2023-05-07T08:02:12.130Z,4.30
2023-05-07T08:04:39.032Z,4.13
2023-05-07T08:07:05.906Z,3.90
2023-05-07T08:09:32.877Z,3.87
2023-05-07T08:11:59.537Z,4.37
2023-05-07T08:14:29.281Z,4.37
2023-05-07T08:16:56.448Z,4.00
2023-05-07T08:19:23.676Z,4.40
2023-05-07T08:21:50.424Z,4.00
2023-05-07T08:24:17.568Z,4.77
2023-05-07T08:29:14.020Z,4.47
2023-05-07T08:31:40.818Z,3.80
2023-05-07T08:34:09.556Z,4.57
2023-05-07T08:36:36.808Z,7.13
2023-05-07T08:39:03.662Z,4.80
2023-05-07T08:41:30.634Z,4.10
2023-05-07T08:44:01.314Z,4.40
2023-05-07T08:46:33.001Z,4.70
2023-05-07T08:49:01.849Z,4.43
2023-05-07T08:51:28.772Z,4.50
2023-05-07T08:53:55.634Z,4.27
2023-05-07T08:56:22.747Z,3.97
2023-05-07T08:58:49.799Z,4.53
2023-05-07T09:01:21.590Z,3.97
2023-05-07T09:03:48.521Z,3.70
2023-05-07T09:06:16.361Z,4.00
2023-05-07T09:08:50.540Z,3.93
2023-05-07T09:11:17.209Z,3.90
2023-05-07T09:13:43.865Z,3.50
2023-05-07T09:16:14.258Z,3.40
2023-05-07T09:18:44.809Z,3.47
2023-05-07T09:21:18.900Z,3.13
2023-05-07T09:23:45.718Z,3.47
2023-05-07T09:26:14.880Z,4.00
2023-05-07T09:28:45.008Z,3.93
2023-05-07T09:31:12.934Z,3.90
2023-05-07T09:33:40.497Z,3.27
2023-05-07T09:36:08.660Z,3.60
2023-05-07T09:38:36.800Z,3.43
2023-05-07T09:41:12.673Z,3.97
2023-05-07T09:43:40.704Z,3.50
2023-05-07T09:46:09.666Z,2.40
2023-05-07T09:48:39.978Z,2.93
2023-05-07T09:51:23.999Z,2.87
2023-05-07T09:53:52.401Z,3.73
2023-05-07T09:56:22.491Z,3.27
2023-05-07T09:58:52.640Z,3.30
2023-05-07T10:01:23.211Z,3.47
2023-05-07T10:03:51.715Z,3.03
2023-05-07T10:06:18.670Z,3.00
2023-05-07T10:08:45.546Z,3.50
2023-05-07T10:11:13.009Z,4.47
2023-05-07T10:13:39.806Z,3.20
2023-05-07T10:16:06.910Z,3.03
2023-05-07T10:18:34.491Z,3.47
2023-05-07T10:21:17.153Z,3.43
2023-05-07T10:23:46.844Z,3.57
2023-05-07T10:26:16.071Z,3.40
2023-05-07T10:28:46.146Z,2.80
2023-05-07T10:32:01.201Z,3.13
2023-05-07T10:34:33.989Z,3.40
2023-05-07T10:37:01.484Z,2.93
2023-05-07T10:39:28.392Z,3.50
2023-05-07T10:41:55.149Z,3.00
2023-05-07T10:44:30.913Z,3.30
2023-05-07T10:47:10.966Z,3.07
2023-05-07T10:49:58.344Z,3.50
2023-05-07T10:52:27.277Z,3.47
2023-05-07T10:55:18.825Z,2.90
2023-05-07T10:57:45.594Z,2.90
2023-05-07T11:00:22.480Z,3.83
2023-05-07T11:03:01.527Z,2.87
2023-05-07T11:05:30.031Z,3.10
2023-05-07T11:08:01.221Z,2.90
2023-05-07T11:10:59.600Z,2.37
2023-05-07T11:13:46.188Z,2.57
2023-05-07T11:16:24.235Z,2.33
2023-05-07T11:18:56.283Z,2.03
2023-05-07T11:21:39.516Z,5.43
2023-05-07T11:24:11.206Z,2.20
2023-05-07T11:26:49.315Z,2.40
2023-05-07T11:29:22.593Z,1.80
2023-05-07T11:31:52.171Z,2.27
2023-05-07T11:34:23.858Z,1.70
2023-05-07T11:36:50.615Z,2.00
2023-05-07T11:39:34.307Z,2.10
2023-05-07T11:42:01.563Z,2.07
2023-05-07T11:44:48.398Z,2.10
2023-05-07T11:47:19.957Z,2.13
2023-05-07T11:49:51.260Z,2.03
2023-05-07T11:52:19.514Z,1.73
2023-05-07T11:54:58.029Z,2.00
2023-05-07T11:57:25.829Z,2.10
2023-05-07T11:59:56.459Z,1.53
2023-05-07T12:02:23.739Z,1.90
2023-05-07T12:04:50.554Z,2.10
2023-05-07T12:07:17.813Z,1.70
2023-05-07T12:09:44.890Z,1.73
2023-05-07T12:12:11.890Z,1.50
2023-05-07T12:14:41.613Z,1.53
2023-05-07T12:17:09.621Z,1.50
2023-05-07T12:19:37.754Z,1.25
2023-05-07T12:22:05.153Z,1.25
2023-05-07T12:24:49.249Z,2.05
2023-05-07T12:27:16.824Z,1.60
2023-05-07T12:29:47.829Z,1.48
2023-05-07T12:32:18.860Z,1.40
2023-05-07T12:34:47.086Z,1.47
2023-05-07T12:37:14.326Z,1.40
2023-05-07T12:39:50.991Z,1.20
2023-05-07T12:42:21.309Z,1.50
2023-05-07T12:44:47.996Z,1.30
2023-05-07T12:47:16.181Z,1.17
2023-05-07T12:49:43.446Z,1.02
2023-05-07T12:52:12.165Z,1.33
2023-05-07T12:54:40.002Z,1.25
2023-05-07T12:57:08.557Z,1.27
2023-05-07T12:59:42.884Z,1.00
2023-05-07T13:02:10.818Z,1.33
2023-05-07T13:04:37.563Z,1.38
2023-05-07T13:07:04.205Z,1.30
2023-05-07T13:09:32.338Z,1.20
2023-05-07T13:12:02.554Z,1.23
2023-05-07T13:14:29.302Z,1.30
2023-05-07T13:16:56.038Z,2.78
2023-05-07T13:19:22.589Z,1.35
2023-05-07T13:21:50.789Z,1.20
2023-05-07T13:24:17.530Z,1.10
2023-05-07T13:26:46.066Z,1.20
2023-05-07T13:29:13.042Z,1.10
2023-05-07T13:31:43.918Z,0.93
2023-05-07T13:34:11.098Z,1.20
2023-05-07T13:36:38.312Z,1.08
2023-05-07T13:39:04.901Z,1.00
2023-05-07T13:41:31.511Z,0.93
2023-05-07T13:43:58.183Z,0.90
2023-05-07T13:46:24.862Z,1.17
2023-05-07T13:48:52.231Z,1.08
2023-05-07T13:51:19.451Z,0.80
2023-05-07T13:53:46.238Z,1.10
2023-05-07T13:56:13.887Z,0.88
2023-05-07T13:58:52.044Z,0.75
2023-05-07T14:01:23.272Z,1.20
2023-05-07T14:03:50.030Z,0.95
2023-05-07T14:06:16.862Z,0.80
2023-05-07T14:08:43.507Z,1.00
2023-05-07T14:11:10.117Z,1.00
2023-05-07T14:13:36.801Z,0.95
2023-05-07T14:16:05.494Z,1.00
2023-05-07T14:18:32.296Z,0.70
2023-05-07T14:20:58.905Z,1.00
2023-05-07T14:23:27.627Z,0.93
2023-05-07T14:25:54.517Z,0.82
2023-05-07T14:28:21.362Z,0.90
2023-05-07T14:30:48.398Z,1.00
2023-05-07T14:33:15.430Z,1.10
2023-05-07T14:35:42.339Z,0.80
2023-05-07T14:38:08.970Z,0.80
2023-05-07T14:40:35.785Z,0.85
2023-05-07T14:43:02.436Z,1.00
2023-05-07T14:45:29.063Z,0.82
2023-05-07T14:47:55.858Z,1.55
2023-05-07T14:50:22.635Z,1.00
2023-05-07T14:52:49.230Z,11.15
2023-05-07T14:55:15.800Z,1.20
2023-05-07T14:57:42.385Z,1.10
2023-05-07T15:00:09.893Z,1.23
2023-05-07T15:02:36.863Z,1.42
2023-05-07T15:05:03.701Z,1.15
2023-05-07T15:07:30.370Z,1.20
2023-05-07T15:09:57.554Z,0.80
2023-05-07T15:12:24.288Z,0.90
2023-05-07T15:14:50.894Z,1.17
2023-05-07T15:17:17.461Z,1.17
2023-05-07T15:19:44.052Z,1.20
2023-05-07T15:22:10.809Z,1.00
2023-05-07T15:24:37.714Z,0.93
2023-05-07T15:27:04.572Z,2.30
2023-05-07T15:29:31.557Z,1.50
2023-05-07T15:31:58.431Z,0.88
2023-05-07T15:34:28.482Z,16.30
2023-05-07T15:36:58.289Z,1.20
2023-05-07T15:39:25.326Z,1.40
2023-05-07T15:41:52.006Z,1.20
2023-05-07T15:44:18.673Z,1.08
2023-05-07T15:46:45.288Z,1.10
2023-05-07T15:49:12.031Z,1.20
2023-05-07T15:51:38.921Z,1.10
2023-05-07T15:54:05.641Z,1.25
2023-05-07T15:56:35.161Z,1.30
2023-05-07T15:59:02.565Z,1.20
2023-05-07T16:01:29.537Z,1.20
2023-05-07T16:03:56.318Z,1.38
2023-05-07T16:06:22.920Z,1.40
2023-05-07T16:08:49.616Z,1.38
2023-05-07T16:11:16.207Z,1.93
2023-05-07T16:13:42.800Z,1.00
2023-05-07T16:16:09.755Z,1.40
2023-05-07T16:18:37.182Z,1.40
2023-05-07T16:21:04.167Z,1.27
2023-05-07T16:23:31.573Z,1.40
2023-05-07T16:25:58.196Z,1.27
2023-05-07T16:28:25.741Z,1.33
2023-05-07T16:30:52.824Z,1.37
2023-05-07T16:33:20.084Z,1.20
2023-05-07T16:35:52.151Z,1.33
2023-05-07T16:38:18.759Z,1.43
2023-05-07T16:40:45.448Z,1.37
2023-05-07T16:43:12.097Z,1.13
2023-05-07T16:45:38.679Z,1.47
2023-05-07T16:48:05.735Z,1.30
2023-05-07T16:50:32.725Z,1.50
2023-05-07T16:52:59.339Z,1.47
2023-05-07T16:55:25.975Z,1.40
2023-05-07T16:57:52.639Z,1.70
2023-05-07T17:00:19.443Z,1.23
2023-05-07T17:02:47.170Z,1.23
2023-05-07T17:05:14.389Z,1.33
2023-05-07T17:07:41.500Z,1.43
2023-05-07T17:10:08.640Z,1.50
2023-05-07T17:12:36.172Z,1.30
2023-05-07T17:15:03.498Z,1.47
2023-05-07T17:17:30.195Z,1.40
2023-05-07T17:19:57.360Z,1.60
2023-05-07T17:22:25.258Z,1.20
2023-05-07T17:24:52.072Z,1.40
2023-05-07T17:27:19.237Z,2.07
2023-05-07T17:29:45.956Z,1.43
2023-05-07T17:32:12.595Z,1.20
2023-05-07T17:34:39.256Z,1.70
2023-05-07T17:37:05.870Z,1.40
2023-05-07T17:39:32.741Z,1.40
2023-05-07T17:41:59.438Z,1.50
2023-05-07T17:44:26.106Z,1.70
2023-05-07T17:46:52.757Z,1.77
2023-05-07T17:49:19.451Z,1.50
2023-05-07T17:51:54.069Z,1.50
2023-05-07T17:54:24.349Z,1.50
2023-05-07T17:56:51.203Z,1.77
2023-05-07T17:59:17.954Z,1.47
2023-05-07T18:01:44.777Z,1.70
2023-05-07T18:04:11.441Z,1.47
2023-05-07T18:06:38.956Z,4.47
2023-05-07T18:09:05.762Z,1.63
2023-05-07T18:11:33.832Z,1.70
2023-05-07T18:14:01.191Z,1.70
2023-05-07T18:16:28.036Z,1.47
2023-05-07T18:18:55.395Z,1.50
2023-05-07T18:21:22.141Z,1.60
2023-05-07T18:23:49.162Z,2.33
2023-05-07T18:26:16.003Z,1.33
2023-05-07T18:28:43.010Z,1.73
2023-05-07T18:31:10.599Z,3.07
2023-05-07T18:33:45.736Z,2.00
2023-05-07T18:36:12.378Z,1.57
2023-05-07T18:38:39.160Z,1.50
2023-05-07T18:41:06.143Z,1.60
2023-05-07T18:43:34.098Z,1.63
2023-05-07T18:46:01.192Z,1.97
2023-05-07T18:48:28.130Z,1.43
2023-05-07T18:50:54.858Z,1.60
2023-05-07T18:53:21.570Z,1.60
2023-05-07T18:55:52.443Z,1.30
2023-05-07T18:58:20.368Z,1.70
2023-05-07T19:00:48.050Z,1.60
2023-05-07T19:03:18.037Z,1.50
2023-05-07T19:05:45.802Z,1.70
2023-05-07T19:08:12.633Z,2.00
2023-05-07T19:10:39.362Z,1.60
2023-05-07T19:13:06.250Z,1.60
2023-05-07T19:15:33.127Z,1.63
2023-05-07T19:17:59.839Z,1.60
2023-05-07T19:20:26.635Z,2.20
2023-05-07T19:22:53.174Z,1.50
2023-05-07T19:25:19.812Z,1.53
2023-05-07T19:27:48.032Z,1.53
2023-05-07T19:30:14.853Z,1.67
2023-05-07T19:32:41.451Z,2.00
2023-05-07T19:35:08.237Z,2.03
2023-05-07T19:37:34.893Z,2.57
2023-05-07T19:40:05.346Z,1.63
2023-05-07T19:42:32.567Z,1.97
2023-05-07T19:44:59.299Z,3.00
2023-05-07T19:47:26.451Z,2.33
2023-05-07T19:49:53.349Z,2.70
2023-05-07T19:52:19.921Z,2.90
2023-05-07T19:54:46.554Z,2.30
2023-05-07T19:57:13.375Z,2.17
2023-05-07T19:59:40.775Z,2.60
2023-05-07T20:02:07.456Z,2.00
2023-05-07T20:04:38.206Z,2.57
2023-05-07T20:07:05.969Z,1.83
2023-05-07T20:09:32.677Z,2.30
2023-05-07T20:11:59.363Z,2.53
2023-05-07T20:14:27.121Z,1.90
2023-05-07T20:16:53.859Z,2.30
2023-05-07T20:19:20.732Z,2.40
2023-05-07T20:21:47.346Z,2.67
2023-05-07T20:24:13.945Z,3.60
2023-05-07T20:26:41.371Z,2.90
2023-05-07T20:29:08.157Z,2.80
2023-05-07T20:31:35.436Z,3.40
2023-05-07T20:34:02.450Z,2.33
2023-05-07T20:36:29.185Z,2.60
2023-05-07T20:38:56.249Z,2.23
2023-05-07T20:41:25.178Z,2.40
2023-05-07T20:43:51.991Z,2.17
2023-05-07T20:46:20.984Z,2.80
2023-05-07T20:48:48.117Z,2.37
2023-05-07T20:51:16.158Z,2.63
2023-05-07T20:53:45.487Z,2.83
2023-05-07T20:56:13.492Z,3.13
2023-05-07T20:58:40.043Z,2.53
2023-05-07T21:01:06.975Z,2.73
2023-05-07T21:03:33.663Z,6.87
2023-05-07T21:06:00.733Z,2.70
2023-05-07T21:08:27.882Z,4.00
2023-05-07T21:10:54.919Z,2.90
2023-05-07T21:13:21.943Z,2.43
2023-05-07T21:15:50.626Z,3.00
2023-05-07T21:18:19.039Z,2.80
2023-05-07T21:20:45.731Z,2.57
2023-05-07T21:23:12.333Z,3.03
2023-05-07T21:25:39.218Z,2.70
2023-05-07T21:28:08.021Z,2.30
2023-05-07T21:30:35.250Z,2.60
2023-05-07T21:33:01.955Z,2.93
2023-05-07T21:35:28.689Z,2.77
2023-05-07T21:37:55.482Z,2.80
2023-05-07T21:40:22.113Z,2.30
2023-05-07T21:42:48.700Z,2.40
2023-05-07T21:45:15.387Z,3.10
2023-05-07T21:47:41.983Z,2.87
2023-05-07T21:50:08.979Z,2.90
2023-05-07T21:52:35.928Z,2.70
2023-05-07T21:55:02.910Z,2.83
2023-05-07T21:57:29.519Z,3.83
2023-05-07T21:59:56.189Z,3.27
2023-05-07T22:02:23.041Z,2.50
2023-05-07T22:04:49.725Z,3.30
2023-05-07T22:07:16.596Z,2.93
2023-05-07T22:09:43.408Z,2.47
2023-05-07T22:12:10.012Z,3.37
2023-05-07T22:14:36.652Z,2.23
2023-05-07T22:17:03.292Z,2.93
2023-05-07T22:19:29.969Z,3.10
2023-05-07T22:21:57.219Z,2.70
2023-05-07T22:24:23.881Z,2.73
2023-05-07T22:26:50.610Z,2.40
2023-05-07T22:29:17.223Z,2.13
2023-05-07T22:31:43.916Z,1.87
2023-05-07T22:34:10.647Z,2.50
2023-05-07T22:36:37.211Z,2.23
2023-05-07T22:39:07.178Z,2.57
2023-05-07T22:41:33.760Z,1.97
2023-05-07T22:44:00.779Z,1.97
2023-05-07T22:46:27.526Z,2.13
2023-05-07T22:48:54.217Z,2.20
2023-05-07T22:51:20.934Z,2.23
2023-05-07T22:53:47.740Z,2.23
2023-05-07T22:56:14.506Z,1.83
2023-05-07T22:58:41.243Z,2.17
2023-05-07T23:01:15.015Z,2.40
2023-05-07T23:03:41.716Z,2.80
2023-05-07T23:06:08.832Z,2.73
2023-05-07T23:08:35.667Z,2.60
2023-05-07T23:11:02.239Z,2.00
2023-05-07T23:13:28.837Z,2.37
2023-05-07T23:15:55.522Z,2.40
2023-05-07T23:18:22.149Z,2.30
2023-05-07T23:20:49.065Z,2.27
2023-05-07T23:23:15.695Z,2.27
2023-05-07T23:25:42.249Z,2.80
2023-05-07T23:28:08.866Z,2.30
2023-05-07T23:30:40.352Z,2.33
2023-05-07T23:33:07.322Z,1.97
2023-05-07T23:35:33.921Z,2.47
2023-05-07T23:38:00.431Z,2.60
2023-05-07T23:40:27.324Z,2.50
2023-05-07T23:42:53.862Z,2.37
2023-05-07T23:45:20.381Z,2.17
2023-05-07T23:47:47.080Z,2.60
2023-05-07T23:50:13.851Z,2.53
2023-05-07T23:52:40.932Z,2.50
2023-05-07T23:55:08.636Z,2.80
2023-05-07T23:57:35.160Z,2.10
